createdAt,value
2022-10-13T00:00:48.164Z,11.1
2022-10-13T00:05:47.988Z,11
2022-10-13T00:10:47.997Z,10.9
2022-10-13T00:15:47.999Z,10.9
2022-10-13T00:20:48.030Z,10.9
2022-10-13T00:25:47.980Z,10.8
2022-10-13T00:30:47.990Z,10.8
2022-10-13T00:35:47.989Z,10.8
2022-10-13T00:40:48.012Z,10.7
2022-10-13T00:45:47.983Z,10.6
2022-10-13T00:50:47.982Z,10.6
2022-10-13T00:55:47.978Z,10.6
2022-10-13T01:00:48.042Z,10.6
2022-10-13T01:05:47.972Z,10.5
2022-10-13T01:10:47.983Z,10.5
2022-10-13T01:15:48.008Z,10.4
2022-10-13T01:20:47.997Z,10.4
2022-10-13T01:25:47.973Z,10.4
2022-10-13T01:30:47.990Z,10.4
2022-10-13T01:35:47.968Z,10.3
2022-10-13T01:40:48.023Z,10.3
2022-10-13T01:45:48.007Z,10.3
2022-10-13T01:50:47.981Z,10.3
2022-10-13T01:55:47.971Z,10.2
2022-10-13T02:00:48.023Z,10.2
2022-10-13T02:05:47.979Z,10.1
2022-10-13T02:10:47.991Z,10.1
2022-10-13T02:15:47.984Z,10.1
2022-10-13T02:20:48.039Z,10.1
2022-10-13T02:25:48.077Z,10
2022-10-13T02:30:48.149Z,10
2022-10-13T02:35:48.157Z,9.9
2022-10-13T02:40:48.315Z,9.9
2022-10-13T02:45:48.258Z,9.9
2022-10-13T02:50:48.257Z,9.9
2022-10-13T02:55:48.300Z,9.8
2022-10-13T03:00:48.326Z,9.8
2022-10-13T03:05:48.169Z,9.8
2022-10-13T03:10:48.242Z,9.8
2022-10-13T03:15:48.168Z,9.8
2022-10-13T03:20:48.256Z,9.8
2022-10-13T03:25:48.175Z,9.7
2022-10-13T03:30:48.180Z,9.7
2022-10-13T03:35:48.185Z,9.6
2022-10-13T03:40:48.316Z,9.6
2022-10-13T03:45:48.175Z,9.6
2022-10-13T03:50:48.175Z,9.6
2022-10-13T03:55:48.164Z,9.5
2022-10-13T04:00:48.193Z,9.5
2022-10-13T04:05:48.173Z,9.5
2022-10-13T04:10:48.188Z,9.4
2022-10-13T04:15:48.162Z,9.4
2022-10-13T04:20:48.196Z,9.4
2022-10-13T04:25:48.174Z,9.4
2022-10-13T04:30:49.484Z,9.4
2022-10-13T04:35:48.162Z,9.3
2022-10-13T04:40:48.192Z,9.3
2022-10-13T04:45:48.164Z,9.3
2022-10-13T04:50:48.177Z,9.3
2022-10-13T04:55:48.226Z,9.3
2022-10-13T05:00:48.342Z,9.3
2022-10-13T05:05:48.274Z,9.3
2022-10-13T05:10:48.350Z,9.3
2022-10-13T05:15:48.346Z,9.3
2022-10-13T05:20:48.360Z,9.3
2022-10-13T05:25:48.276Z,9.3
2022-10-13T05:30:48.276Z,9.2
2022-10-13T05:35:48.300Z,9.3
2022-10-13T05:40:48.293Z,9.3
2022-10-13T05:45:48.278Z,9.3
2022-10-13T05:50:48.272Z,9.3
2022-10-13T05:55:48.263Z,9.3
2022-10-13T06:00:48.287Z,9.3
2022-10-13T06:05:48.335Z,9.3
2022-10-13T06:10:48.261Z,9.3
2022-10-13T06:15:48.268Z,9.4
2022-10-13T06:20:48.289Z,9.4
2022-10-13T06:25:48.265Z,9.4
2022-10-13T06:30:48.269Z,9.4
2022-10-13T06:35:48.517Z,9.4
2022-10-13T06:40:48.392Z,9.5
2022-10-13T06:45:48.265Z,9.5
2022-10-13T06:50:48.248Z,9.5
2022-10-13T06:55:52.287Z,9.6
2022-10-13T07:00:48.470Z,9.6
2022-10-13T07:05:48.247Z,9.6
2022-10-13T07:10:48.251Z,9.6
2022-10-13T07:15:48.256Z,9.6
2022-10-13T07:20:48.270Z,9.7
2022-10-13T07:25:48.258Z,9.7
2022-10-13T07:30:48.242Z,9.8
2022-10-13T07:35:48.262Z,9.8
2022-10-13T07:40:48.265Z,9.8
2022-10-13T07:45:48.253Z,9.9
2022-10-13T07:50:48.251Z,9.9
2022-10-13T07:55:48.241Z,9.9
2022-10-13T08:00:48.294Z,10
2022-10-13T08:05:48.243Z,10.1
2022-10-13T08:10:48.281Z,10.1
2022-10-13T08:15:48.292Z,10.2
2022-10-13T08:20:48.272Z,10.3
2022-10-13T08:25:48.250Z,10.4
2022-10-13T08:30:48.375Z,10.4
2022-10-13T08:35:48.241Z,10.6
2022-10-13T08:40:48.262Z,10.6
2022-10-13T08:45:48.232Z,10.8
2022-10-13T08:50:48.356Z,10.8
2022-10-13T08:55:48.218Z,10.9
2022-10-13T09:00:48.247Z,11
2022-10-13T09:05:48.231Z,11.1
2022-10-13T09:10:48.297Z,11.2
2022-10-13T09:15:48.245Z,11.3
2022-10-13T09:20:48.286Z,11.4
2022-10-13T09:25:48.232Z,11.6
2022-10-13T09:30:48.230Z,11.6
2022-10-13T09:35:48.240Z,11.8
2022-10-13T09:40:48.291Z,11.9
2022-10-13T09:45:48.237Z,11.9
2022-10-13T09:50:48.231Z,12.1
2022-10-13T09:55:48.238Z,12.1
2022-10-13T10:00:48.266Z,12.3
2022-10-13T10:05:48.222Z,12.3
2022-10-13T10:10:48.216Z,12.4
2022-10-13T10:15:48.227Z,12.5
2022-10-13T10:20:48.239Z,12.6
2022-10-13T10:25:48.220Z,12.7
2022-10-13T10:30:48.226Z,12.8
2022-10-13T10:35:48.223Z,12.9
2022-10-13T10:40:48.247Z,12.9
2022-10-13T10:45:48.218Z,13.1
2022-10-13T10:50:48.221Z,13.1
2022-10-13T10:55:48.262Z,13.3
2022-10-13T11:00:48.224Z,13.4
2022-10-13T11:05:48.216Z,13.5
2022-10-13T11:10:48.229Z,13.6
2022-10-13T11:15:48.217Z,13.7
2022-10-13T11:20:48.246Z,13.8
2022-10-13T11:25:48.204Z,13.9
2022-10-13T11:30:48.217Z,14
2022-10-13T11:35:48.198Z,14.1
2022-10-13T11:40:48.248Z,14.2
2022-10-13T11:45:48.196Z,14.3
2022-10-13T11:50:48.196Z,14.4
2022-10-13T11:55:48.254Z,14.6
2022-10-13T12:00:48.212Z,14.7
2022-10-13T12:05:48.193Z,14.8
2022-10-13T12:10:48.193Z,14.9
2022-10-13T12:15:48.201Z,15
2022-10-13T12:20:48.296Z,15.1
2022-10-13T12:25:48.204Z,15.2
2022-10-13T12:30:48.192Z,15.3
2022-10-13T12:35:48.177Z,15.4
2022-10-13T12:40:48.375Z,15.4
2022-10-13T12:45:48.252Z,15.5
2022-10-13T12:50:48.175Z,15.6
2022-10-13T12:55:48.184Z,15.7
2022-10-13T13:00:48.301Z,15.8
2022-10-13T13:05:52.313Z,15.8
2022-10-13T13:10:48.169Z,15.9
2022-10-13T13:15:48.184Z,15.9
2022-10-13T13:20:48.322Z,16
2022-10-13T13:25:48.204Z,16.1
2022-10-13T13:30:48.193Z,16.1
2022-10-13T13:35:48.176Z,16.1
2022-10-13T13:40:48.199Z,16.2
2022-10-13T13:45:48.207Z,16.2
2022-10-13T13:50:48.169Z,16.3
2022-10-13T13:55:48.174Z,16.3
2022-10-13T14:00:48.187Z,16.3
2022-10-13T14:05:48.167Z,16.4
2022-10-13T14:10:48.195Z,16.4
2022-10-13T14:15:48.175Z,16.4
2022-10-13T14:20:48.201Z,16.5
2022-10-13T14:25:48.158Z,16.6
2022-10-13T14:30:48.160Z,16.7
2022-10-13T14:35:48.165Z,16.8
2022-10-13T14:40:48.189Z,16.9
2022-10-13T14:45:48.166Z,16.9
2022-10-13T14:50:48.171Z,17
2022-10-13T14:55:48.150Z,17.1
2022-10-13T15:00:48.315Z,17.1
2022-10-13T15:05:48.239Z,17.2
2022-10-13T15:10:48.242Z,17.3
2022-10-13T15:15:48.240Z,17.3
2022-10-13T15:20:48.264Z,17.3
2022-10-13T15:25:48.240Z,17.4
2022-10-13T15:30:48.240Z,17.4
2022-10-13T15:35:48.311Z,17.4
2022-10-13T15:40:48.268Z,17.4
2022-10-13T15:45:48.231Z,17.4
2022-10-13T15:50:48.226Z,17.4
2022-10-13T15:55:48.214Z,17.4
2022-10-13T16:00:48.288Z,17.4
2022-10-13T16:05:48.235Z,17.4
2022-10-13T16:10:48.240Z,17.4
2022-10-13T16:15:48.231Z,17.4
2022-10-13T16:20:48.241Z,17.4
2022-10-13T16:25:48.291Z,17.4
2022-10-13T16:30:48.233Z,17.4
2022-10-13T16:35:48.226Z,17.3
2022-10-13T16:40:48.234Z,17.3
2022-10-13T16:45:59.472Z,17.3
2022-10-13T16:50:48.258Z,17.2
2022-10-13T16:55:48.208Z,17.2
2022-10-13T17:00:48.260Z,17.1
2022-10-13T17:05:48.219Z,17.1
2022-10-13T17:10:51.708Z,17.1
2022-10-13T17:15:48.206Z,17
2022-10-13T17:20:48.233Z,16.9
2022-10-13T17:25:48.201Z,16.9
2022-10-13T17:30:48.208Z,16.9
2022-10-13T17:35:48.209Z,16.8
2022-10-13T17:40:48.222Z,16.8
2022-10-13T17:45:48.199Z,16.7
2022-10-13T17:50:48.210Z,16.6
2022-10-13T17:55:48.195Z,16.6
2022-10-13T18:01:11.678Z,16.6
2022-10-13T18:05:48.199Z,16.4
2022-10-13T18:15:48.221Z,16.3
2022-10-13T18:20:48.223Z,16.2
2022-10-13T18:25:48.191Z,16.1
2022-10-13T18:30:48.181Z,16.1
2022-10-13T18:35:48.193Z,16
2022-10-13T18:40:48.214Z,15.9
2022-10-13T18:45:48.186Z,15.8
2022-10-13T18:50:48.184Z,15.8
2022-10-13T18:55:48.183Z,15.7
2022-10-13T19:00:48.310Z,15.6
2022-10-13T19:05:48.167Z,15.6
2022-10-13T19:10:48.198Z,15.5
2022-10-13T19:15:48.200Z,15.4
2022-10-13T19:20:48.199Z,15.4
2022-10-13T19:25:48.171Z,15.3
2022-10-13T19:30:48.177Z,15.2
2022-10-13T19:35:48.167Z,15.1
2022-10-13T19:40:48.198Z,15.1
2022-10-13T19:45:48.160Z,15
2022-10-13T19:50:48.163Z,14.9
2022-10-13T19:55:48.170Z,14.9
2022-10-13T20:00:48.229Z,14.8
2022-10-13T20:05:48.172Z,14.7
2022-10-13T20:10:48.221Z,14.6
2022-10-13T20:15:48.175Z,14.6
2022-10-13T20:20:48.192Z,14.5
2022-10-13T20:25:48.172Z,14.4
2022-10-13T20:30:48.156Z,14.4
2022-10-13T20:35:48.149Z,14.3
2022-10-13T20:40:48.182Z,14.2
2022-10-13T20:45:48.154Z,14.1
2022-10-13T20:50:48.323Z,14.1
2022-10-13T20:55:48.158Z,14
2022-10-13T21:00:48.219Z,13.9
2022-10-13T21:05:48.147Z,13.9
2022-10-13T21:10:48.147Z,13.8
2022-10-13T21:15:48.146Z,13.8
2022-10-13T21:20:48.166Z,13.8
2022-10-13T21:25:48.145Z,13.7
2022-10-13T21:30:48.142Z,13.6
2022-10-13T21:35:48.143Z,13.6
2022-10-13T21:40:51.671Z,13.5
2022-10-13T21:45:48.131Z,13.4
2022-10-13T21:50:48.134Z,13.4
2022-10-13T21:55:48.139Z,13.4
2022-10-13T22:00:48.295Z,13.3
2022-10-13T22:05:48.146Z,13.3
2022-10-13T22:10:48.128Z,13.2
2022-10-13T22:15:48.127Z,13.2
2022-10-13T22:20:48.171Z,13.1
2022-10-13T22:25:48.126Z,13.1
2022-10-13T22:30:48.150Z,13
2022-10-13T22:35:48.128Z,13
2022-10-13T22:40:48.147Z,12.9
2022-10-13T22:45:48.139Z,12.9
2022-10-13T22:50:48.127Z,12.9
2022-10-13T22:55:48.123Z,12.9
2022-10-13T23:00:48.164Z,12.8
2022-10-13T23:05:48.121Z,12.8
2022-10-13T23:10:48.120Z,12.8
2022-10-13T23:15:48.123Z,12.8
2022-10-13T23:20:48.133Z,12.7
2022-10-13T23:25:48.113Z,12.7
2022-10-13T23:30:48.111Z,12.7
2022-10-13T23:35:48.117Z,12.6
2022-10-13T23:40:48.139Z,12.6
2022-10-13T23:45:48.103Z,12.6
2022-10-13T23:50:48.125Z,12.6
2022-10-13T23:55:48.109Z,12.6
